aviador You're here:

LFRM Decoded Metar

LE MANS in FRANCE
Report Time2018-06-25 11:30:00
UTC Time2018-06-25 11:48:01
Flight Rules vfr VFR
Wind060° at 10 kt
W.Decomp.*RWY 02: 7.5 kt HW 6.6 kt RCW
W.Rank060° ranks 15
Current wind is above 060° avg. (5.7)
Visibility9999 m
Phenomena:N/A
Clouds:Few 042 Hf
Expected CloudBase > 4,800 ft AGL from Temp-Dew spread
CeilingNone
Temp24°C (ISA +9)
Dew Point12°C (47% RH)
AAT21.0°C
QNH1023 hPa
Density Alt1,109 ft
Elevation171 ft
Report Wrong Elevation
Raw Report
LFRM 251130Z AUTO 06010KT 360V090 9999 FEW042 24/12 Q1023
NOSIG=

Extra information for LFRM:More info

Metar Taf Metar & Taf Last 4 Metars F.Rules Stats Wind Profile Meteogram Temp Stats Airport Information Weather charts Add Link Nearby VenuesMetar ALERT Operation Metar Decoded Social comments